createdAt,value
2023-01-02T00:00:29.189Z,8.5
2023-01-02T00:01:36.115Z,8.5
2023-01-02T00:02:43.207Z,8.6
2023-01-02T00:03:51.262Z,8.6
2023-01-02T00:04:59.244Z,8.6
2023-01-02T00:06:06.711Z,8.6
2023-01-02T00:07:13.610Z,8.6
2023-01-02T00:08:20.702Z,8.7
2023-01-02T00:09:28.040Z,8.8
2023-01-02T00:10:35.024Z,8.8
2023-01-02T00:11:42.098Z,8.8
2023-01-02T00:12:49.221Z,8.7
2023-01-02T00:13:57.318Z,8.6
2023-01-02T00:15:05.422Z,8.5
2023-01-02T00:16:12.676Z,8.4
2023-01-02T00:17:19.963Z,8.4
2023-01-02T00:18:28.256Z,8.4
2023-01-02T00:19:35.138Z,8.4
2023-01-02T00:20:43.264Z,8.3
2023-01-02T00:21:51.218Z,8.3
2023-01-02T00:22:58.014Z,8.2
2023-01-02T00:24:05.106Z,8.3
2023-01-02T00:25:14.179Z,8.2
2023-01-02T00:26:21.698Z,8.2
2023-01-02T00:27:28.857Z,8.2
2023-01-02T00:28:35.985Z,8.3
2023-01-02T00:29:43.836Z,8.2
2023-01-02T00:30:52.344Z,8.3
2023-01-02T00:31:59.612Z,8.3
2023-01-02T00:33:06.894Z,8.2
2023-01-02T00:34:14.247Z,8.2
2023-01-02T00:35:21.609Z,8.2
2023-01-02T00:36:28.902Z,8.3
2023-01-02T00:37:35.781Z,8.2
2023-01-02T00:38:45.071Z,8.2
2023-01-02T00:39:53.207Z,8.2
2023-01-02T00:41:01.058Z,8.3
2023-01-02T00:42:08.810Z,8.2
2023-01-02T00:43:16.191Z,8.3
2023-01-02T00:44:23.202Z,8.3
2023-01-02T00:45:30.587Z,8.3
2023-01-02T00:46:38.041Z,8.3
2023-01-02T00:47:45.142Z,8.3
2023-01-02T00:48:53.655Z,8.3
2023-01-02T00:50:01.487Z,8.2
2023-01-02T00:51:09.159Z,8.3
2023-01-02T00:52:18.034Z,8.3
2023-01-02T00:53:26.093Z,8.2
2023-01-02T00:54:33.078Z,8.3
2023-01-02T00:55:40.202Z,8.3
2023-01-02T00:56:48.362Z,8.3
2023-01-02T00:57:56.973Z,8.3
2023-01-02T00:59:04.582Z,8.3
2023-01-02T01:00:13.239Z,8.4
2023-01-02T01:01:20.444Z,8.3
2023-01-02T01:02:28.507Z,8.3
2023-01-02T01:03:35.931Z,8.3
2023-01-02T01:04:42.871Z,8.2
2023-01-02T01:05:50.465Z,8.2
2023-01-02T01:06:58.613Z,8.3
2023-01-02T01:08:06.170Z,8.2
2023-01-02T01:09:13.406Z,8.3
2023-01-02T01:10:20.522Z,8.3
2023-01-02T01:11:27.799Z,8.3
2023-01-02T01:12:34.833Z,8.3
2023-01-02T01:13:42.343Z,8.2
2023-01-02T01:14:50.454Z,8.3
2023-01-02T01:15:58.301Z,8.2
2023-01-02T01:17:09.170Z,8.2
2023-01-02T01:18:16.177Z,8.2
2023-01-02T01:19:23.235Z,8.2
2023-01-02T01:20:34.409Z,8.2
2023-01-02T01:21:41.569Z,8.2
2023-01-02T01:22:48.663Z,8.1
2023-01-02T01:23:56.820Z,8.1
2023-01-02T01:25:04.827Z,8.1
2023-01-02T01:26:13.030Z,8.1
2023-01-02T01:27:20.390Z,8.1
2023-01-02T01:28:27.610Z,8
2023-01-02T01:29:34.638Z,8
2023-01-02T01:30:42.798Z,8
2023-01-02T01:31:50.217Z,8
2023-01-02T01:32:57.063Z,8
2023-01-02T01:34:04.194Z,8
2023-01-02T01:35:12.125Z,7.9
2023-01-02T01:36:19.438Z,7.9
2023-01-02T01:37:27.006Z,7.9
2023-01-02T01:38:34.293Z,7.9
2023-01-02T01:39:41.585Z,7.9
2023-01-02T01:40:48.688Z,8
2023-01-02T01:41:55.709Z,8
2023-01-02T01:43:02.762Z,7.9
2023-01-02T01:44:09.901Z,8
2023-01-02T01:45:19.934Z,8
2023-01-02T01:46:27.412Z,8
2023-01-02T01:47:40.256Z,7.8
2023-01-02T01:48:48.841Z,7.9
2023-01-02T01:50:04.884Z,7.9
2023-01-02T01:51:16.274Z,7.9
2023-01-02T01:52:23.459Z,8
2023-01-02T01:53:30.534Z,8
2023-01-02T01:54:37.547Z,8.1
2023-01-02T01:55:49.964Z,8.1
2023-01-02T01:56:57.044Z,8.1
2023-01-02T01:58:05.965Z,8.1
2023-01-02T01:59:13.508Z,8.1
2023-01-02T02:00:21.825Z,8.2
2023-01-02T02:01:29.187Z,8.2
2023-01-02T02:02:37.212Z,8.2
2023-01-02T02:03:46.004Z,8.2
2023-01-02T02:04:53.263Z,8.2
2023-01-02T02:06:00.525Z,8.2
2023-01-02T02:07:07.917Z,8.2
2023-01-02T02:08:15.102Z,8.1
2023-01-02T02:09:23.045Z,8.1
2023-01-02T02:10:40.834Z,8.1
2023-01-02T02:11:47.989Z,8.2
2023-01-02T02:12:57.027Z,8.2
2023-01-02T02:14:04.366Z,8.2
2023-01-02T02:15:11.503Z,8.3
2023-01-02T02:16:19.614Z,8.3
2023-01-02T02:17:27.013Z,8.5
2023-01-02T02:18:44.699Z,8.4
2023-01-02T02:19:57.801Z,8.3
2023-01-02T02:21:10.085Z,8.3
2023-01-02T02:22:27.467Z,8.3
2023-01-02T02:23:45.761Z,8.2
2023-01-02T02:24:59.988Z,8.3
2023-01-02T02:26:10.227Z,8.1
2023-01-02T02:27:24.237Z,8.3
2023-01-02T02:28:42.565Z,8.3
2023-01-02T02:29:57.649Z,8.2
2023-01-02T02:31:06.113Z,8.2
2023-01-02T02:32:23.505Z,8.1
2023-01-02T02:33:38.255Z,8.1
2023-01-02T02:34:50.541Z,8.1
2023-01-02T02:36:03.715Z,8.3
2023-01-02T02:37:21.188Z,8.3
2023-01-02T02:38:35.423Z,8.1
2023-01-02T02:39:52.736Z,8.1
2023-01-02T02:41:03.638Z,8.3
2023-01-02T02:42:11.226Z,8.2
2023-01-02T02:43:26.209Z,8.4
2023-01-02T02:44:43.529Z,8.5
2023-01-02T02:46:00.825Z,8.5
2023-01-02T02:47:07.897Z,8.6
2023-01-02T02:48:17.563Z,8.5
2023-01-02T02:49:25.240Z,8.4
2023-01-02T02:50:35.041Z,8.3
2023-01-02T02:51:42.934Z,8.2
2023-01-02T02:52:52.776Z,8.2
2023-01-02T02:54:05.357Z,8.1
2023-01-02T02:55:13.803Z,8.2
2023-01-02T02:56:26.888Z,8.1
2023-01-02T02:57:34.120Z,8.1
2023-01-02T02:58:41.246Z,8.1
2023-01-02T02:59:48.159Z,8.1
2023-01-02T03:00:55.629Z,8.1
2023-01-02T03:02:08.791Z,8.1
2023-01-02T03:03:22.756Z,8.2
2023-01-02T03:04:30.241Z,8.2
2023-01-02T03:05:38.233Z,8.2
2023-01-02T03:06:45.520Z,8.2
2023-01-02T03:08:03.649Z,8.3
2023-01-02T03:09:18.799Z,8.3
2023-01-02T03:10:33.468Z,8.3
2023-01-02T03:11:51.749Z,8.3
2023-01-02T03:13:04.097Z,8.3
2023-01-02T03:14:16.544Z,8.3
2023-01-02T03:15:29.625Z,8.3
2023-01-02T03:16:40.449Z,8.3
2023-01-02T03:17:48.877Z,8.4
2023-01-02T03:19:01.313Z,8.4
2023-01-02T03:20:13.792Z,8.3
2023-01-02T03:21:20.807Z,8.4
2023-01-02T03:22:35.052Z,8.4
2023-01-02T03:23:42.224Z,8.5
2023-01-02T03:24:49.404Z,8.4
2023-01-02T03:25:56.478Z,8.4
2023-01-02T03:27:03.729Z,8.4
2023-01-02T03:28:12.658Z,8.5
2023-01-02T03:29:19.762Z,8.5
2023-01-02T03:30:33.134Z,8.4
2023-01-02T03:31:41.537Z,8.4
2023-01-02T03:32:49.056Z,8.3
2023-01-02T03:34:02.816Z,8.5
2023-01-02T03:35:18.956Z,8.6
2023-01-02T03:36:27.097Z,8.5
2023-01-02T03:37:34.641Z,8.5
2023-01-02T03:38:41.863Z,8.6
2023-01-02T03:39:57.103Z,8.5
2023-01-02T03:41:05.607Z,8.6
2023-01-02T03:42:12.853Z,8.7
2023-01-02T03:43:21.223Z,8.6
2023-01-02T03:44:29.477Z,8.7
2023-01-02T03:45:49.929Z,8.5
2023-01-02T03:47:03.123Z,8.5
2023-01-02T03:48:15.697Z,8.6
2023-01-02T03:49:22.878Z,8.6
2023-01-02T03:50:35.916Z,8.7
2023-01-02T03:51:45.535Z,8.7
2023-01-02T03:52:53.113Z,8.7
2023-01-02T03:54:00.594Z,8.7
2023-01-02T03:55:07.627Z,8.7
2023-01-02T03:56:15.401Z,8.6
2023-01-02T03:57:31.893Z,8.6
2023-01-02T03:58:44.289Z,8.6
2023-01-02T03:59:59.553Z,8.6
2023-01-02T04:01:06.679Z,8.6
2023-01-02T04:02:14.306Z,8.6
2023-01-02T04:03:32.196Z,8.6
2023-01-02T04:04:50.341Z,8.5
2023-01-02T04:05:59.785Z,8.5
2023-01-02T04:07:08.650Z,8.6
2023-01-02T04:08:15.937Z,8.6
2023-01-02T04:09:22.925Z,8.6
2023-01-02T04:10:29.875Z,8.6
2023-01-02T04:11:37.990Z,8.6
2023-01-02T04:12:47.002Z,8.6
2023-01-02T04:13:55.632Z,8.6
2023-01-02T04:15:02.511Z,8.6
2023-01-02T04:16:10.203Z,8.6
2023-01-02T04:17:18.789Z,8.6
2023-01-02T04:18:26.752Z,8.6
2023-01-02T04:19:34.085Z,8.5
2023-01-02T04:20:47.824Z,8.5
2023-01-02T04:21:55.129Z,8.5
2023-01-02T04:23:03.364Z,8.4
2023-01-02T04:24:11.652Z,8.4
2023-01-02T04:25:24.245Z,8.3
2023-01-02T04:26:34.934Z,8.3
2023-01-02T04:27:53.671Z,8.3
2023-01-02T04:29:06.950Z,8.3
2023-01-02T04:30:14.514Z,8.2
2023-01-02T04:31:21.568Z,8.3
2023-01-02T04:32:37.430Z,8
2023-01-02T04:33:44.511Z,8.2
2023-01-02T04:34:54.481Z,8.2
2023-01-02T04:36:02.105Z,8.3
2023-01-02T04:37:12.186Z,8.3
2023-01-02T04:38:30.050Z,8.3
2023-01-02T04:39:36.770Z,8.3
2023-01-02T04:40:44.509Z,8.3
2023-01-02T04:41:51.718Z,8.3
2023-01-02T04:42:59.202Z,8.3
2023-01-02T04:44:07.257Z,8.2
2023-01-02T04:45:14.579Z,8.2
2023-01-02T04:46:21.645Z,8.1
2023-01-02T04:47:28.951Z,8.1
2023-01-02T04:48:36.179Z,8.1
2023-01-02T04:49:43.530Z,8.1
2023-01-02T04:50:50.650Z,8.1
2023-01-02T04:51:58.955Z,8.1
2023-01-02T04:53:07.377Z,8
2023-01-02T04:54:14.753Z,8
2023-01-02T04:55:22.451Z,8
2023-01-02T04:56:29.384Z,8
2023-01-02T04:57:36.734Z,8
2023-01-02T04:58:43.988Z,8
2023-01-02T04:59:51.077Z,8
2023-01-02T05:00:59.161Z,8
2023-01-02T05:02:06.460Z,8
2023-01-02T05:03:13.629Z,8
2023-01-02T05:04:22.507Z,8
2023-01-02T05:05:30.338Z,8
2023-01-02T05:06:38.470Z,8
2023-01-02T05:07:46.151Z,8
2023-01-02T05:08:55.281Z,8
2023-01-02T05:10:02.437Z,7.9
2023-01-02T05:11:11.189Z,7.9
2023-01-02T05:12:20.937Z,7.8
2023-01-02T05:13:28.113Z,7.8
2023-01-02T05:14:35.729Z,7.7
2023-01-02T05:15:42.880Z,7.7
2023-01-02T05:16:49.869Z,7.7
2023-01-02T05:17:56.941Z,7.5
2023-01-02T05:19:05.096Z,7.5
2023-01-02T05:20:12.786Z,7.5
2023-01-02T05:21:21.772Z,7.4
2023-01-02T05:22:35.603Z,7.4
2023-01-02T05:23:47.844Z,7.5
2023-01-02T05:24:55.795Z,7.6
2023-01-02T05:26:04.279Z,7.7
2023-01-02T05:27:17.677Z,7.5
2023-01-02T05:28:25.065Z,7.6
2023-01-02T05:29:33.185Z,7.5
2023-01-02T05:30:40.297Z,7.6
2023-01-02T05:31:47.634Z,7.6
2023-01-02T05:32:55.740Z,7.7
2023-01-02T05:34:02.823Z,7.6
2023-01-02T05:35:09.840Z,7.5
2023-01-02T05:36:18.043Z,7.3
2023-01-02T05:37:27.047Z,7.4
2023-01-02T05:38:34.263Z,7.5
2023-01-02T05:39:41.455Z,7.4
2023-01-02T05:40:48.612Z,7.5
2023-01-02T05:42:03.795Z,7.4
2023-01-02T05:43:10.962Z,7.5
2023-01-02T05:44:18.235Z,7.4
2023-01-02T05:45:25.391Z,7.4
2023-01-02T05:46:33.505Z,7.5
2023-01-02T05:47:40.743Z,7.5
2023-01-02T05:48:48.335Z,7.4
2023-01-02T05:49:55.276Z,7.5
2023-01-02T05:51:03.067Z,7.6
2023-01-02T05:52:10.041Z,7.7
2023-01-02T05:53:19.251Z,7.7
2023-01-02T05:54:26.596Z,7.8
2023-01-02T05:55:33.697Z,7.8
2023-01-02T05:56:41.476Z,7.7
2023-01-02T05:57:49.229Z,7.7
2023-01-02T05:58:59.869Z,7.8
2023-01-02T06:00:06.721Z,7.8
2023-01-02T06:01:14.914Z,7.8
2023-01-02T06:02:22.234Z,7.9
2023-01-02T06:03:29.555Z,7.9
2023-01-02T06:04:36.705Z,7.8
2023-01-02T06:05:45.169Z,7.7
2023-01-02T06:06:52.023Z,7.7
2023-01-02T06:07:59.905Z,7.7
2023-01-02T06:09:06.810Z,7.7
2023-01-02T06:10:16.539Z,7.7
2023-01-02T06:11:23.716Z,7.7
2023-01-02T06:12:30.772Z,7.7
2023-01-02T06:13:38.456Z,7.7
2023-01-02T06:14:45.610Z,7.7
2023-01-02T06:15:53.531Z,7.7
2023-01-02T06:17:00.636Z,7.7
2023-01-02T06:18:09.784Z,7.7
2023-01-02T06:19:16.957Z,7.7
2023-01-02T06:20:24.286Z,7.7
2023-01-02T06:21:31.364Z,7.7
2023-01-02T06:22:39.397Z,7.7
2023-01-02T06:23:47.188Z,7.7
2023-01-02T06:24:58.224Z,7.7
2023-01-02T06:26:07.401Z,7.6
2023-01-02T06:27:15.508Z,7.6
2023-01-02T06:28:22.411Z,7.6
2023-01-02T06:29:30.623Z,7.6
2023-01-02T06:30:37.680Z,7.5
2023-01-02T06:31:51.003Z,7.4
2023-01-02T06:32:52.468Z,7.4
2023-01-02T06:34:01.216Z,7.3
2023-01-02T06:35:08.506Z,7.3
2023-01-02T06:36:16.144Z,7.5
2023-01-02T06:37:23.943Z,7.4
2023-01-02T06:38:31.981Z,7.4
2023-01-02T06:39:39.801Z,7.5
2023-01-02T06:40:46.937Z,7.4
2023-01-02T06:42:00.066Z,7.2
2023-01-02T06:43:07.216Z,7.3
2023-01-02T06:44:14.535Z,7.3
2023-01-02T06:45:22.576Z,7.4
2023-01-02T06:46:29.841Z,7.4
2023-01-02T06:47:37.212Z,7.3
2023-01-02T06:48:46.145Z,7.3
2023-01-02T06:49:53.127Z,7.3
2023-01-02T06:51:01.045Z,7.3
2023-01-02T06:52:08.599Z,7.4
2023-01-02T06:53:15.544Z,7.3
2023-01-02T06:54:22.700Z,7.3
2023-01-02T06:55:30.171Z,7.3
2023-01-02T06:56:38.992Z,7.3
2023-01-02T06:57:46.060Z,7.3
2023-01-02T06:58:54.111Z,7.3
2023-01-02T07:00:02.947Z,7.4
2023-01-02T07:01:10.784Z,7.4
2023-01-02T07:02:18.020Z,7.5
2023-01-02T07:03:24.960Z,7.3
2023-01-02T07:04:32.852Z,7.4
2023-01-02T07:05:40.189Z,7.3
2023-01-02T07:06:47.295Z,7.4
2023-01-02T07:07:55.172Z,7.4
2023-01-02T07:09:02.665Z,7.4
2023-01-02T07:10:09.688Z,7.5
2023-01-02T07:11:16.960Z,7.4
2023-01-02T07:12:23.958Z,7.5
2023-01-02T07:13:31.049Z,7.4
2023-01-02T07:14:38.195Z,7.4
2023-01-02T07:15:46.544Z,7.5
2023-01-02T07:16:53.670Z,7.5
2023-01-02T07:18:01.603Z,7.6
2023-01-02T07:19:08.766Z,7.5
2023-01-02T07:20:15.905Z,7.6
2023-01-02T07:21:22.999Z,7.6
2023-01-02T07:22:30.250Z,7.5
2023-01-02T07:23:37.339Z,7.5
2023-01-02T07:24:45.523Z,7.5
2023-01-02T07:25:52.744Z,7.5
2023-01-02T07:26:59.964Z,7.6
2023-01-02T07:28:08.276Z,7.5
2023-01-02T07:29:17.576Z,7.5
2023-01-02T07:30:25.767Z,7.6
2023-01-02T07:31:33.935Z,7.6
2023-01-02T07:32:42.168Z,7.7
2023-01-02T07:33:50.151Z,7.7
2023-01-02T07:34:57.426Z,7.6
2023-01-02T07:36:04.544Z,7.6
2023-01-02T07:37:12.893Z,7.7
2023-01-02T07:38:20.293Z,7.7
2023-01-02T07:39:27.780Z,7.7
2023-01-02T07:40:36.161Z,7.7
2023-01-02T07:41:43.372Z,7.8
2023-01-02T07:42:53.239Z,7.9
2023-01-02T07:44:01.642Z,7.9
2023-01-02T07:45:09.829Z,7.8
2023-01-02T07:46:17.084Z,7.9
2023-01-02T07:47:24.911Z,7.8
2023-01-02T07:48:32.182Z,7.7
2023-01-02T07:49:39.332Z,7.8
2023-01-02T07:50:46.271Z,7.8
2023-01-02T07:51:54.380Z,7.8
2023-01-02T07:53:01.784Z,7.9
2023-01-02T07:54:08.733Z,7.9
2023-01-02T07:55:15.738Z,7.9
2023-01-02T07:56:23.083Z,7.9
2023-01-02T07:57:30.350Z,7.9
2023-01-02T07:58:37.195Z,8
2023-01-02T07:59:45.491Z,8.1
2023-01-02T08:00:52.474Z,8.1
2023-01-02T08:02:00.486Z,8.1
2023-01-02T08:03:07.292Z,8.2
2023-01-02T08:04:15.275Z,8.3
2023-01-02T08:05:23.206Z,8.2
2023-01-02T08:06:30.211Z,8.4
2023-01-02T08:07:42.859Z,8.4
2023-01-02T08:08:44.387Z,8.4
2023-01-02T08:09:51.458Z,8.3
2023-01-02T08:10:58.740Z,8.3
2023-01-02T08:12:08.769Z,8.5
2023-01-02T08:13:16.090Z,8.5
2023-01-02T08:14:23.707Z,8.4
2023-01-02T08:15:32.076Z,8.5
2023-01-02T08:16:40.427Z,8.5
2023-01-02T08:17:47.906Z,8.6
2023-01-02T08:18:55.268Z,8.6
2023-01-02T08:20:07.403Z,8.6
2023-01-02T08:21:09.907Z,8.6
2023-01-02T08:22:17.161Z,8.7
2023-01-02T08:23:26.503Z,8.8
2023-01-02T08:24:34.256Z,8.7
2023-01-02T08:25:42.360Z,8.8
2023-01-02T08:26:49.772Z,8.8
2023-01-02T08:27:56.735Z,8.8
2023-01-02T08:29:04.443Z,8.9
2023-01-02T08:30:11.656Z,8.9
2023-01-02T08:31:19.963Z,9
2023-01-02T08:32:27.124Z,8.9
2023-01-02T08:33:36.161Z,9
2023-01-02T08:34:43.399Z,9.1
2023-01-02T08:35:50.932Z,9
2023-01-02T08:36:57.918Z,9.1
2023-01-02T08:38:05.021Z,9.1
2023-01-02T08:39:12.969Z,9.1
2023-01-02T08:40:19.938Z,9.1
2023-01-02T08:41:26.903Z,9.2
2023-01-02T08:42:38.004Z,9.2
2023-01-02T08:43:45.372Z,9.2
2023-01-02T08:44:52.257Z,9.2
2023-01-02T08:46:00.354Z,9.4
2023-01-02T08:47:07.558Z,9.3
2023-01-02T08:48:20.060Z,9.4
2023-01-02T08:49:23.759Z,9.4
2023-01-02T08:50:32.651Z,9.4
2023-01-02T08:51:40.725Z,9.4
2023-01-02T08:52:48.940Z,9.5
2023-01-02T08:53:56.820Z,9.5
2023-01-02T08:55:03.673Z,9.6
2023-01-02T08:56:11.201Z,9.6
2023-01-02T08:57:24.905Z,9.7
2023-01-02T08:58:33.528Z,9.8
2023-01-02T08:59:41.135Z,9.8
2023-01-02T09:00:49.117Z,9.8
2023-01-02T09:01:56.457Z,9.9
2023-01-02T09:03:03.556Z,9.9
2023-01-02T09:04:12.616Z,9.9
2023-01-02T09:05:18.396Z,9.9
2023-01-02T09:06:25.619Z,10
2023-01-02T09:07:32.776Z,9.9
2023-01-02T09:08:41.287Z,10
2023-01-02T09:09:48.917Z,10.1
2023-01-02T09:10:56.479Z,10.1
2023-01-02T09:12:04.800Z,10.3
2023-01-02T09:13:12.268Z,10.3
2023-01-02T09:14:19.930Z,10.2
2023-01-02T09:15:26.941Z,10.2
2023-01-02T09:16:34.730Z,10.2
2023-01-02T09:17:41.724Z,10.3
2023-01-02T09:18:48.983Z,10.4
2023-01-02T09:19:55.891Z,10.4
2023-01-02T09:21:03.774Z,10.4
2023-01-02T09:22:11.438Z,10.5
2023-01-02T09:23:18.398Z,10.5
2023-01-02T09:24:25.403Z,10.5
2023-01-02T09:25:34.198Z,10.5
2023-01-02T09:26:42.425Z,10.5
2023-01-02T09:27:51.391Z,10.6
2023-01-02T09:28:58.529Z,10.6
2023-01-02T09:30:05.856Z,10.6
2023-01-02T09:31:13.473Z,10.7
2023-01-02T09:32:20.934Z,10.7
2023-01-02T09:33:29.023Z,10.7
2023-01-02T09:34:36.256Z,10.7
2023-01-02T09:35:43.262Z,10.7
2023-01-02T09:36:51.334Z,10.8
2023-01-02T09:37:58.473Z,10.8
2023-01-02T09:39:05.749Z,10.8
2023-01-02T09:40:12.684Z,10.9
2023-01-02T09:41:20.368Z,10.9
2023-01-02T09:42:35.234Z,11.1
2023-01-02T09:43:42.590Z,11.1
2023-01-02T09:44:50.210Z,11.2
2023-01-02T09:45:58.570Z,11.2
2023-01-02T09:47:05.794Z,11.2
2023-01-02T09:48:18.890Z,11.3
2023-01-02T09:49:27.103Z,11.3
2023-01-02T09:50:35.410Z,11.3
2023-01-02T09:51:42.581Z,11.5
2023-01-02T09:52:50.101Z,11.5
2023-01-02T09:53:57.660Z,11.6
2023-01-02T09:55:04.903Z,11.7
2023-01-02T09:56:22.828Z,11.7
2023-01-02T09:57:31.504Z,11.8
2023-01-02T09:58:39.298Z,12
2023-01-02T09:59:54.148Z,12
2023-01-02T10:01:06.281Z,12.1
2023-01-02T10:02:13.500Z,12.2
2023-01-02T10:03:28.448Z,12.3
2023-01-02T10:04:41.032Z,12.2
2023-01-02T10:05:56.188Z,12.2
2023-01-02T10:07:10.357Z,12.2
2023-01-02T10:08:31.660Z,12.4
2023-01-02T10:09:35.586Z,12.4
2023-01-02T10:10:54.044Z,12.5
2023-01-02T10:12:09.311Z,12.7
2023-01-02T10:13:19.853Z,12.4
2023-01-02T10:14:44.112Z,12.5
2023-01-02T10:15:50.842Z,12.6
2023-01-02T10:16:58.352Z,12.6
2023-01-02T10:18:05.394Z,12.6
2023-01-02T10:19:18.743Z,12.8
2023-01-02T10:20:26.691Z,12.9
2023-01-02T10:21:33.808Z,13.1
2023-01-02T10:22:41.157Z,13
2023-01-02T10:23:55.225Z,13.1
2023-01-02T10:25:11.313Z,13.1
2023-01-02T10:26:23.856Z,13.2
2023-01-02T10:27:31.259Z,13.1
2023-01-02T10:28:44.435Z,13
2023-01-02T10:30:02.928Z,12.9
2023-01-02T10:31:18.599Z,12.9
2023-01-02T10:32:31.862Z,13.1
2023-01-02T10:33:40.125Z,13.2
2023-01-02T10:34:56.472Z,13
2023-01-02T10:36:06.521Z,13
2023-01-02T10:37:13.936Z,13
2023-01-02T10:38:20.913Z,12.9
2023-01-02T10:39:28.043Z,12.8
2023-01-02T10:40:35.115Z,12.8
2023-01-02T10:41:42.137Z,13
2023-01-02T10:42:53.303Z,13
2023-01-02T10:43:57.242Z,13
2023-01-02T10:45:04.422Z,13.1
2023-01-02T10:46:11.828Z,13.2
2023-01-02T10:47:18.861Z,13.2
2023-01-02T10:48:32.365Z,13.4
2023-01-02T10:49:40.506Z,13.4
2023-01-02T10:50:48.458Z,13.3
2023-01-02T10:51:56.565Z,13.4
2023-01-02T10:53:07.024Z,13.4
2023-01-02T10:54:24.556Z,13.4
2023-01-02T10:55:32.843Z,13.4
2023-01-02T10:56:43.914Z,13.6
2023-01-02T10:57:50.964Z,13.7
2023-01-02T10:58:58.221Z,13.8
2023-01-02T11:00:05.832Z,13.7
2023-01-02T11:01:28.887Z,13.8
2023-01-02T11:02:38.659Z,13.7
2023-01-02T11:03:45.565Z,13.6
2023-01-02T11:04:53.532Z,13.6
2023-01-02T11:06:23.461Z,13.5
2023-01-02T11:07:11.314Z,13.5
2023-01-02T11:08:18.676Z,13.7
2023-01-02T11:09:27.637Z,13.7
2023-01-02T11:10:36.380Z,13.6
2023-01-02T11:11:45.556Z,13.7
2023-01-02T11:12:53.192Z,13.8
2023-01-02T11:14:00.515Z,13.8
2023-01-02T11:15:12.647Z,13.6
2023-01-02T11:16:19.746Z,13.7
2023-01-02T11:17:26.782Z,13.7
2023-01-02T11:18:35.345Z,13.6
2023-01-02T11:19:42.645Z,13.8
2023-01-02T11:20:55.727Z,13.7
2023-01-02T11:22:04.365Z,13.8
2023-01-02T11:23:11.539Z,13.9
2023-01-02T11:24:18.774Z,13.9
2023-01-02T11:25:26.756Z,13.9
2023-01-02T11:26:37.393Z,13.9
2023-01-02T11:27:45.184Z,14.1
2023-01-02T11:28:53.174Z,14
2023-01-02T11:30:00.579Z,14
2023-01-02T11:31:08.527Z,13.7
2023-01-02T11:32:16.617Z,13.6
2023-01-02T11:33:27.240Z,13.7
2023-01-02T11:34:35.604Z,13.8
2023-01-02T11:35:42.877Z,13.8
2023-01-02T11:36:56.070Z,13.7
2023-01-02T11:38:09.189Z,13.8
2023-01-02T11:39:19.235Z,14
2023-01-02T11:40:27.476Z,13.9
2023-01-02T11:41:34.616Z,14
2023-01-02T11:42:51.901Z,14
2023-01-02T11:44:07.154Z,13.8
2023-01-02T11:45:16.209Z,13.8
2023-01-02T11:46:23.645Z,13.7
2023-01-02T11:47:33.579Z,13.6
2023-01-02T11:48:53.688Z,13.8
2023-01-02T11:50:03.656Z,13.9
2023-01-02T11:51:17.326Z,13.8
2023-01-02T11:52:20.491Z,13.9
2023-01-02T11:53:28.149Z,14.1
2023-01-02T11:54:37.784Z,14
2023-01-02T11:55:47.980Z,13.9
2023-01-02T11:56:55.425Z,13.9
2023-01-02T11:58:03.145Z,13.9
2023-01-02T11:59:14.319Z,13.8
2023-01-02T12:00:29.637Z,13.9
2023-01-02T12:01:36.874Z,13.9
2023-01-02T12:02:55.580Z,13.9
2023-01-02T12:04:07.875Z,14.3
2023-01-02T12:05:16.133Z,14.3
2023-01-02T12:06:33.400Z,14.2
2023-01-02T12:07:50.797Z,14.2
2023-01-02T12:08:57.661Z,14.2
2023-01-02T12:10:13.617Z,14.2
2023-01-02T12:11:30.878Z,14.1
2023-01-02T12:12:43.001Z,14.2
2023-01-02T12:13:55.489Z,14.1
2023-01-02T12:15:02.341Z,14.2
2023-01-02T12:16:17.766Z,14.3
2023-01-02T12:17:32.446Z,14.5
2023-01-02T12:18:48.682Z,14.4
2023-01-02T12:20:03.505Z,14.6
2023-01-02T12:21:14.160Z,14.6
2023-01-02T12:22:26.397Z,14.5
2023-01-02T12:23:43.749Z,14.4
2023-01-02T12:24:55.827Z,14.3
2023-01-02T12:26:09.537Z,14.3
2023-01-02T12:27:15.265Z,14.5
2023-01-02T12:28:27.600Z,14.6
2023-01-02T12:29:45.930Z,14.5
2023-01-02T12:30:55.126Z,14.5
2023-01-02T12:32:12.932Z,14.6
2023-01-02T12:33:25.183Z,14.5
2023-01-02T12:34:38.240Z,14.4
2023-01-02T12:35:50.640Z,14.3
2023-01-02T12:37:03.596Z,14.4
2023-01-02T12:38:23.022Z,14.5
2023-01-02T12:39:35.857Z,14.5
2023-01-02T12:40:53.233Z,14.6
2023-01-02T12:42:05.323Z,14.6
2023-01-02T12:43:20.839Z,14.4
2023-01-02T12:44:33.842Z,14.4
2023-01-02T12:45:45.830Z,14.1
2023-01-02T12:47:00.788Z,14.2
2023-01-02T12:48:10.464Z,14.3
2023-01-02T12:49:27.858Z,14.3
2023-01-02T12:50:44.000Z,14.2
2023-01-02T12:51:53.425Z,14.3
2023-01-02T12:53:05.423Z,14.2
2023-01-02T12:54:23.036Z,14.2
2023-01-02T12:55:38.185Z,14.2
2023-01-02T12:56:55.776Z,14.3
2023-01-02T12:58:08.038Z,14.3
2023-01-02T12:59:22.915Z,14.3
2023-01-02T13:00:35.163Z,14.4
2023-01-02T13:01:47.445Z,14.4
2023-01-02T13:03:02.419Z,14.3
2023-01-02T13:04:14.812Z,14.2
2023-01-02T13:05:21.955Z,14.2
2023-01-02T13:06:43.277Z,14.1
2023-01-02T13:07:46.328Z,14.1
2023-01-02T13:08:58.394Z,14.3
2023-01-02T13:10:15.960Z,14.1
2023-01-02T13:11:22.871Z,14.1
2023-01-02T13:12:33.391Z,14.2
2023-01-02T13:13:40.297Z,14.3
2023-01-02T13:14:48.328Z,14.3
2023-01-02T13:16:11.364Z,14.4
2023-01-02T13:17:12.856Z,14.2
2023-01-02T13:18:25.244Z,14.2
2023-01-02T13:19:32.368Z,14.3
2023-01-02T13:20:47.559Z,14.1
2023-01-02T13:21:54.781Z,14.2
2023-01-02T13:23:12.768Z,14.1
2023-01-02T13:24:25.156Z,14.2
2023-01-02T13:25:32.374Z,14.2
2023-01-02T13:26:39.404Z,14.1
2023-01-02T13:27:46.575Z,14
2023-01-02T13:28:53.586Z,14.1
2023-01-02T13:30:03.401Z,14.1
2023-01-02T13:31:44.602Z,14.1
2023-01-02T13:32:17.973Z,14.1
2023-01-02T13:33:29.892Z,14.1
2023-01-02T13:34:42.195Z,14.1
2023-01-02T13:35:54.485Z,14.1
2023-01-02T13:37:01.395Z,14
2023-01-02T13:38:08.612Z,14.1
2023-01-02T13:39:15.866Z,14
2023-01-02T13:40:22.778Z,13.9
2023-01-02T13:41:30.007Z,13.7
2023-01-02T13:42:38.372Z,13.8
2023-01-02T13:43:50.321Z,13.8
2023-01-02T13:45:00.491Z,13.9
2023-01-02T13:46:08.009Z,13.8
2023-01-02T13:47:19.268Z,13.9
2023-01-02T13:48:22.023Z,13.9
2023-01-02T13:49:34.192Z,13.8
2023-01-02T13:50:41.318Z,13.9
2023-01-02T13:51:48.718Z,13.8
2023-01-02T13:52:55.627Z,13.7
2023-01-02T13:54:14.220Z,13.7
2023-01-02T13:55:20.487Z,13.7
2023-01-02T13:56:30.409Z,13.8
2023-01-02T13:57:38.183Z,13.6
2023-01-02T13:58:46.210Z,13.6
2023-01-02T14:00:02.442Z,13.6
2023-01-02T14:01:20.328Z,13.5
2023-01-02T14:02:27.476Z,13.5
2023-01-02T14:03:34.250Z,13.5
2023-01-02T14:04:41.435Z,13.5
2023-01-02T14:05:48.682Z,13.5
2023-01-02T14:07:01.229Z,13.4
2023-01-02T14:08:18.498Z,13.5
2023-01-02T14:09:30.803Z,13.5
2023-01-02T14:10:37.992Z,13.5
2023-01-02T14:11:56.124Z,13.4
2023-01-02T14:12:55.249Z,13.4
2023-01-02T14:14:02.547Z,13.3
2023-01-02T14:15:17.578Z,13.3
2023-01-02T14:16:28.312Z,13.2
2023-01-02T14:17:35.839Z,13.2
2023-01-02T14:18:48.880Z,13.3
2023-01-02T14:20:06.791Z,13.3
2023-01-02T14:21:23.256Z,13.2
2023-01-02T14:22:30.430Z,13.1
2023-01-02T14:23:37.620Z,13.2
2023-01-02T14:24:44.896Z,13.2
2023-01-02T14:25:51.901Z,13.1
2023-01-02T14:26:59.076Z,13.1
2023-01-02T14:28:09.134Z,13.2
2023-01-02T14:29:16.277Z,13.1
2023-01-02T14:30:23.419Z,13
2023-01-02T14:31:33.586Z,13
2023-01-02T14:32:40.796Z,13
2023-01-02T14:33:47.992Z,12.9
2023-01-02T14:34:55.116Z,13
2023-01-02T14:36:02.015Z,12.8
2023-01-02T14:37:12.285Z,12.7
2023-01-02T14:38:27.111Z,12.6
2023-01-02T14:39:34.743Z,12.6
2023-01-02T14:40:41.753Z,12.5
2023-01-02T14:41:48.911Z,12.5
2023-01-02T14:43:01.060Z,12.5
2023-01-02T14:44:13.391Z,12.5
2023-01-02T14:45:20.379Z,12.5
2023-01-02T14:46:27.473Z,12.6
2023-01-02T14:47:34.172Z,12.5
2023-01-02T14:48:41.192Z,12.4
2023-01-02T14:49:56.062Z,12.4
2023-01-02T14:51:03.192Z,12.3
2023-01-02T14:52:10.223Z,12.1
2023-01-02T14:53:17.579Z,12.1
2023-01-02T14:54:27.664Z,12
2023-01-02T14:55:42.680Z,12
2023-01-02T14:56:49.679Z,12
2023-01-02T14:57:59.645Z,11.9
2023-01-02T14:59:06.912Z,11.9
2023-01-02T15:00:19.075Z,12
2023-01-02T15:01:41.990Z,12.1
2023-01-02T15:02:43.808Z,11.9
2023-01-02T15:03:50.798Z,11.9
2023-01-02T15:05:00.375Z,12
2023-01-02T15:06:12.276Z,11.9
2023-01-02T15:07:24.184Z,12
2023-01-02T15:08:33.023Z,12.2
2023-01-02T15:09:44.828Z,12
2023-01-02T15:10:54.910Z,12
2023-01-02T15:12:05.139Z,11.9
2023-01-02T15:13:28.103Z,11.9
2023-01-02T15:14:35.151Z,12
2023-01-02T15:15:42.958Z,12
2023-01-02T15:16:49.783Z,12
2023-01-02T15:18:00.041Z,11.9
2023-01-02T15:19:07.093Z,11.8
2023-01-02T15:20:14.237Z,11.9
2023-01-02T15:21:24.581Z,11.7
2023-01-02T15:22:29.531Z,11.7
2023-01-02T15:23:36.697Z,11.7
2023-01-02T15:24:46.479Z,11.7
2023-01-02T15:26:32.072Z,11.7
2023-01-02T15:27:00.524Z,11.5
2023-01-02T15:28:15.356Z,11.5
2023-01-02T15:29:27.875Z,11.4
2023-01-02T15:30:35.838Z,11.4
2023-01-02T15:31:42.973Z,11.6
2023-01-02T15:32:58.202Z,11.4
2023-01-02T15:34:05.461Z,11.3
2023-01-02T15:35:12.434Z,11.5
2023-01-02T15:36:24.717Z,11.6
2023-01-02T15:37:42.299Z,11.5
2023-01-02T15:38:49.216Z,11.4
2023-01-02T15:39:56.346Z,11.4
2023-01-02T15:41:03.342Z,11.4
2023-01-02T15:42:12.542Z,11.3
2023-01-02T15:43:24.191Z,11.3
2023-01-02T15:44:36.486Z,11.3
2023-01-02T15:45:48.685Z,11.1
2023-01-02T15:46:55.920Z,11.1